Time;durP1;ratioP1;P1;durP2;ratioP2;P2;SDS_P1;SDS_P2;PMS_P1;PMS_P2;Temp;Humidity;BMP_temperature;BMP_pressure;BME280_temperature;BME280_humidity;BME280_pressure;Samples;Min_cycle;Max_cycle;Signal;HPM_P1;HPM_P2
2022/11/16 00:01:23;;;;;;;;;1.00;1.00;;;;;11.02;100.00;99325.63;6256171;22;45372;-85
2022/11/16 00:03:51;;;;;;;;;4.00;2.00;;;;;11.08;100.00;99349.50;6258144;22;45365;-85
2022/11/16 00:06:20;;;;;;;;;2.00;2.00;;;;;11.00;100.00;99336.28;6256533;22;45337;-85
2022/11/16 00:11:36;;;;;;;;;1.00;1.00;;;;;10.98;100.00;99343.38;6286744;22;45298;-85
2022/11/16 00:14:03;;;;;;;;;4.00;2.00;;;;;10.98;100.00;99331.88;6260830;22;45293;-85
2022/11/16 00:16:36;;;;;;;;;2.67;2.67;;;;;10.98;100.00;99338.06;6286361;22;45388;-85
2022/11/16 00:19:04;;;;;;;;;3.00;2.00;;;;;10.95;100.00;99343.44;6259507;22;47034;-85
2022/11/16 00:21:30;;;;;;;;;2.75;2.00;;;;;10.93;100.00;99342.56;6260053;22;45492;-85
2022/11/16 00:23:55;;;;;;;;;1.00;1.00;;;;;10.91;100.00;99341.72;6260942;22;44832;-85
2022/11/16 00:26:22;;;;;;;;;2.00;2.00;;;;;10.87;100.00;99328.47;6261591;22;45189;-85
2022/11/16 00:28:49;;;;;;;;;1.00;0.75;;;;;10.87;100.00;99347.94;6260079;22;47487;-85
2022/11/16 00:31:14;;;;;;;;;3.67;3.00;;;;;10.82;100.00;99347.09;6285671;22;44660;-85
2022/11/16 00:33:40;;;;;;;;;6.67;2.33;;;;;10.82;100.00;99344.44;6259279;22;45199;-85
2022/11/16 00:36:08;;;;;;;;;1.00;1.00;;;;;10.84;100.00;99350.63;6285135;22;44822;-85
2022/11/16 00:38:37;;;;;;;;;1.00;1.00;;;;;10.79;100.00;99342.69;6258378;22;46630;-85
2022/11/16 00:41:06;;;;;;;;;1.00;1.00;;;;;10.75;100.00;99325.00;6287503;22;45346;-85
2022/11/16 00:46:53;;;;;;;;;2.00;0.00;;;;;10.78;100.00;99334.72;6288686;22;45306;-85
2022/11/16 00:49:22;;;;;;;;;1.67;1.00;;;;;10.80;100.00;99338.25;6286366;22;47853;-85
2022/11/16 00:51:48;;;;;;;;;2.00;2.00;;;;;10.79;100.00;99334.72;6287862;22;45178;-85
2022/11/16 00:54:13;;;;;;;;;9.00;2.00;;;;;10.75;100.00;99337.44;6284604;22;45187;-85
2022/11/16 00:56:40;;;;;;;;;3.67;3.00;;;;;10.76;100.00;99328.53;6284688;22;44831;-85
2022/11/16 00:59:05;;;;;;;;;1.67;1.00;;;;;10.81;100.00;99350.66;6258079;22;47086;-85
2022/11/16 01:01:31;;;;;;;;;2.00;1.33;;;;;10.82;100.00;99357.75;6259074;22;45722;-85
2022/11/16 01:03:59;;;;;;;;;4.33;3.33;;;;;10.80;100.00;99356.88;6283307;22;45228;-85
2022/11/16 01:06:25;;;;;;;;;1.00;1.00;;;;;10.83;100.00;99346.22;6258664;22;45266;-85
2022/11/16 01:08:51;;;;;;;;;0.00;0.00;;;;;10.84;100.00;99344.44;6257955;22;47437;-85
2022/11/16 01:14:05;;;;;;;;;4.67;1.00;;;;;10.96;100.00;99342.53;6287487;22;45469;-84
2022/11/16 01:16:31;;;;;;;;;1.00;1.00;;;;;10.96;100.00;99331.88;6286600;22;45345;-85
2022/11/16 01:18:56;;;;;;;;;1.67;1.00;;;;;11.04;100.00;99337.13;6285948;22;45259;-85
2022/11/16 01:21:23;;;;;;;;;1.67;1.67;;;;;11.02;100.00;99317.66;6285821;22;45262;-85
2022/11/16 01:23:51;;;;;;;;;0.33;0.33;;;;;11.19;100.00;99341.44;6255108;22;45646;-85
2022/11/16 01:26:17;;;;;;;;;2.00;2.00;;;;;11.16;100.00;99334.34;6282482;22;45372;-85
2022/11/16 01:28:42;;;;;;;;;1.00;1.00;;;;;11.16;100.00;99317.50;6280362;22;47145;-85
2022/11/16 01:31:09;;;;;;;;;1.00;1.00;;;;;11.21;100.00;99331.66;6255818;22;45476;-85
2022/11/16 01:33:35;;;;;;;;;0.33;0.33;;;;;11.23;100.00;99329.84;6285001;22;45441;-85
2022/11/16 01:36:00;;;;;;;;;1.33;1.00;;;;;11.15;100.00;99329.03;6282206;22;45361;-85
2022/11/16 01:38:26;;;;;;;;;2.00;0.33;;;;;11.14;100.00;99337.94;6256029;22;48184;-85
2022/11/16 01:40:51;;;;;;;;;1.00;1.00;;;;;11.10;100.00;99339.72;6256729;22;45252;-85
2022/11/16 01:43:26;;;;;;;;;2.75;1.75;;;;;11.12;100.00;99345.03;6256047;22;45405;-85
2022/11/16 01:45:56;;;;;;;;;1.00;1.00;;;;;11.08;100.00;99343.31;6283164;22;45340;-85
2022/11/16 01:48:26;;;;;;;;;3.33;1.00;;;;;11.08;100.00;99348.63;6283159;22;47927;-85
2022/11/16 01:50:57;;;;;;;;;1.33;1.33;;;;;11.06;100.00;99345.09;6285009;22;45285;-85
2022/11/16 01:53:23;;;;;;;;;1.00;1.00;;;;;10.92;100.00;99327.50;6277823;22;45458;-84
2022/11/16 01:55:49;;;;;;;;;3.33;0.00;;;;;10.90;100.00;99339.94;6255052;22;45262;-85
2022/11/16 02:01:37;;;;;;;;;0.33;0.33;;;;;10.88;100.00;99336.41;6257702;22;44725;-85
2022/11/16 02:04:03;;;;;;;;;3.00;1.67;;;;;10.78;100.00;99316.13;6231313;22;45299;-85
2022/11/16 02:06:37;;;;;;;;;0.00;0.00;;;;;10.76;100.00;99324.09;6254307;22;45465;-85
2022/11/16 02:09:54;;;;;;;;;1.00;1.00;;;;;10.79;100.00;99336.50;6228126;22;46912;-85
2022/11/16 02:12:41;;;;;;;;;3.33;2.67;;;;;10.77;100.00;99338.31;6227865;22;45356;-85
2022/11/16 02:15:11;;;;;;;;;4.00;0.67;;;;;10.70;100.00;99339.25;6252210;22;45333;-85
2022/11/16 02:17:45;;;;;;;;;2.00;0.00;;;;;10.70;100.00;99341.91;6228014;22;44840;-85
2022/11/16 02:20:37;;;;;;;;;0.00;0.00;;;;;10.67;100.00;99336.63;6253901;22;47102;-85
2022/11/16 02:23:21;;;;;;;;;0.25;0.25;;;;;10.65;100.00;99343.72;6229267;22;45620;-85
2022/11/16 02:26:24;;;;;;;;;1.67;1.67;;;;;10.61;100.00;99346.41;6254551;22;45334;-84
2022/11/16 02:29:20;;;;;;;;;0.67;0.67;;;;;10.59;100.00;99350.84;6255949;22;45373;-84
2022/11/16 02:32:34;;;;;;;;;1.67;0.67;;;;;10.49;100.00;99333.22;6228527;22;46831;-84
2022/11/16 02:35:06;;;;;;;;;1.00;1.00;;;;;10.52;100.00;99359.78;6221202;22;45339;-84
2022/11/16 02:37:39;;;;;;;;;1.00;1.00;;;;;10.50;100.00;99345.63;6256059;22;45314;-85
2022/11/16 02:40:09;;;;;;;;;1.00;1.00;;;;;10.48;100.00;99347.38;6229910;22;45455;-85
2022/11/16 02:42:49;;;;;;;;;0.00;0.00;;;;;10.43;100.00;99338.59;6255237;22;46947;-85
2022/11/16 02:45:21;;;;;;;;;0.50;0.50;;;;;10.38;100.00;99335.06;6228479;22;44673;-85
2022/11/16 02:47:49;;;;;;;;;2.25;2.25;;;;;10.38;100.00;99332.41;6256529;22;45292;-84
2022/11/16 02:50:18;;;;;;;;;1.00;0.00;;;;;10.35;100.00;99329.78;6258551;22;45345;-84
2022/11/16 02:52:44;;;;;;;;;0.25;0.25;;;;;10.33;100.00;99316.50;6228928;22;47627;-85
2022/11/16 02:55:12;;;;;;;;;1.00;1.00;;;;;10.33;100.00;99315.63;6254910;22;45547;-84
2022/11/16 02:57:45;;;;;;;;;1.50;0.25;;;;;10.34;100.00;99312.06;6283739;22;45339;-85
2022/11/16 03:01:03;;;;;;;;;0.00;0.00;;;;;10.39;100.00;99327.09;6257898;22;45455;-84
2022/11/16 03:03:48;;;;;;;;;2.00;1.00;;;;;10.32;100.00;99319.16;6257545;22;46878;-85
2022/11/16 03:06:25;;;;;;;;;1.25;1.25;;;;;10.38;100.00;99321.78;6285697;22;45290;-85
2022/11/16 03:08:58;;;;;;;;;1.00;1.00;;;;;10.44;100.00;99329.69;6258251;22;45408;-85
2022/11/16 03:14:14;;;;;;;;;2.25;2.00;;;;;10.47;100.00;99323.50;6286286;22;45380;-85
2022/11/16 03:16:44;;;;;;;;;3.25;0.50;;;;;10.47;100.00;99316.41;6285682;22;45615;-85
2022/11/16 03:19:15;;;;;;;;;1.50;1.50;;;;;10.47;100.00;99319.06;6260582;22;45337;-85
2022/11/16 03:21:47;;;;;;;;;0.50;0.50;;;;;10.51;100.00;99304.84;6260146;22;45431;-85
2022/11/16 03:24:15;;;;;;;;;2.00;1.25;;;;;10.54;100.00;99304.84;6259662;22;46590;-85
2022/11/16 03:26:56;;;;;;;;;2.00;1.33;;;;;10.52;100.00;99293.34;6259011;22;44760;-85
2022/11/16 03:29:29;;;;;;;;;2.67;1.00;;;;;10.48;100.00;99288.91;6286656;22;45459;-86
2022/11/16 03:32:03;;;;;;;;;2.00;1.00;;;;;10.43;100.00;99287.22;6259008;22;45895;-85
2022/11/16 03:34:34;;;;;;;;;0.00;0.00;;;;;10.34;100.00;99274.88;6258758;22;48064;-87
2022/11/16 03:37:02;;;;;;;;;1.00;0.67;;;;;10.31;100.00;99283.75;6283838;22;45363;-85
2022/11/16 03:39:37;;;;;;;;;0.33;0.33;;;;;10.16;100.00;99271.44;6258939;22;45253;-86
2022/11/16 03:42:09;;;;;;;;;0.00;0.00;;;;;10.20;100.00;99288.25;6260478;22;45298;-85
2022/11/16 03:44:35;;;;;;;;;1.00;1.00;;;;;10.20;100.00;99294.44;6259048;22;45491;-86
2022/11/16 03:47:01;;;;;;;;;0.00;0.00;;;;;10.16;100.00;99289.13;6284977;22;45300;-85
2022/11/16 03:49:30;;;;;;;;;1.33;1.33;;;;;10.14;100.00;99294.50;6285325;22;45285;-85
2022/11/16 03:51:56;;;;;;;;;0.00;0.00;;;;;10.04;100.00;99266.25;6286718;22;45266;-85
2022/11/16 03:54:22;;;;;;;;;3.00;2.00;;;;;10.01;100.00;99274.22;6269429;22;45429;-85
2022/11/16 03:56:48;;;;;;;;;3.33;0.00;;;;;9.95;100.00;99255.66;6252562;22;45284;-85
2022/11/16 03:59:13;;;;;;;;;3.00;2.00;;;;;9.91;100.00;99259.25;6256481;22;45345;-85
2022/11/16 04:01:39;;;;;;;;;1.00;1.00;;;;;9.95;100.00;99272.47;6230343;22;45348;-85
2022/11/16 04:04:04;;;;;;;;;1.00;1.00;;;;;9.91;100.00;99265.44;6228559;22;46788;-85
2022/11/16 04:29:18;;;;;;;;;0.00;0.00;;;;;9.65;100.00;99262.94;6191906;23;44765;-85
2022/11/16 04:39:58;;;;;;;;;0.25;0.25;;;;;9.63;100.00;99251.44;6189263;23;45276;-85
2022/11/16 04:42:25;;;;;;;;;1.00;1.00;;;;;9.66;100.00;99262.06;6191197;23;45347;-85
2022/11/16 04:47:34;;;;;;;;;0.67;0.67;;;;;9.81;100.00;99263.72;6254897;22;45310;-85
2022/11/16 04:50:00;;;;;;;;;1.00;1.00;;;;;9.92;100.00;99268.97;6227071;22;45303;-85
2022/11/16 04:52:25;;;;;;;;;3.33;0.00;;;;;9.99;100.00;99260.06;6253922;22;45381;-85
2022/11/16 04:54:51;;;;;;;;;1.00;1.00;;;;;10.06;100.00;99247.59;6258091;22;45341;-85
2022/11/16 04:57:19;;;;;;;;;2.67;2.33;;;;;10.16;100.00;99258.16;6230002;22;48027;-85
2022/11/16 04:59:44;;;;;;;;;6.33;2.00;;;;;10.19;100.00;99247.50;6256368;22;45594;-85
2022/11/16 05:02:10;;;;;;;;;1.33;1.33;;;;;10.23;100.00;99248.38;6258244;22;45292;-85
2022/11/16 05:04:41;;;;;;;;;1.33;1.33;;;;;10.36;100.00;99251.81;6230153;22;45439;-85
2022/11/16 05:07:12;;;;;;;;;1.00;1.00;;;;;10.41;100.00;99250.00;6230719;22;47132;-85
2022/11/16 05:13:02;;;;;;;;;7.33;1.00;;;;;10.34;100.00;99241.22;6257489;22;45217;-85
2022/11/16 05:15:28;;;;;;;;;3.33;2.00;;;;;10.35;100.00;99240.31;6228946;22;45368;-85
2022/11/16 05:17:54;;;;;;;;;3.33;2.33;;;;;10.33;100.00;99234.13;6228009;22;47304;-85
2022/11/16 05:24:32;;;;;;;;;2.67;1.33;;;;;10.34;100.00;99240.31;6257030;22;44689;-85
2022/11/16 05:25:52;;;;;;;;;3.33;2.00;;;;;10.29;100.00;99237.69;6236162;22;45660;-85
2022/11/16 05:28:18;;;;;;;;;0.33;0.33;;;;;10.29;100.00;99236.81;6254192;22;47964;-85
2022/11/16 05:30:44;;;;;;;;;2.00;2.00;;;;;10.27;100.00;99231.50;6254410;22;45257;-85
2022/11/16 05:33:15;;;;;;;;;1.00;1.00;;;;;10.28;100.00;99235.03;6256864;22;45277;-85
2022/11/16 05:35:40;;;;;;;;;2.00;1.33;;;;;10.25;100.00;99227.97;6255812;22;45317;-85
2022/11/16 05:38:06;;;;;;;;;0.00;0.00;;;;;10.20;100.00;99238.66;6256893;22;46933;-85
2022/11/16 05:40:32;;;;;;;;;3.00;1.67;;;;;10.24;100.00;99236.84;6258013;22;45272;-85
2022/11/16 05:42:57;;;;;;;;;4.67;2.67;;;;;10.24;100.00;99230.63;6260116;22;45323;-85
2022/11/16 05:45:23;;;;;;;;;1.00;1.00;;;;;10.20;100.00;99228.03;6231140;22;45199;-86
2022/11/16 05:47:48;;;;;;;;;2.00;1.00;;;;;10.17;100.00;99228.03;6228127;22;46482;-85
2022/11/16 05:50:14;;;;;;;;;1.00;1.00;;;;;10.12;100.00;99221.00;6257251;22;45761;-85
2022/11/16 05:52:41;;;;;;;;;0.33;0.00;;;;;10.16;100.00;99230.69;6229685;22;45309;-85
2022/11/16 05:55:09;;;;;;;;;3.67;2.00;;;;;10.14;100.00;99222.75;6249542;22;45568;-85
2022/11/16 05:57:37;;;;;;;;;2.00;2.00;;;;;10.17;100.00;99236.00;6255885;22;47226;-85
2022/11/16 06:00:06;;;;;;;;;3.00;2.00;;;;;10.01;100.00;99200.72;6256168;22;44704;-85
2022/11/16 06:02:32;;;;;;;;;1.00;1.00;;;;;10.21;100.00;99248.38;6256550;22;45468;-85
2022/11/16 06:04:57;;;;;;;;;2.00;1.00;;;;;10.13;100.00;99228.97;6283460;22;45363;-85
2022/11/16 06:07:30;;;;;;;;;3.00;3.00;;;;;10.09;100.00;99216.59;6258729;22;48059;-85
2022/11/16 06:09:59;;;;;;;;;2.00;2.00;;;;;10.15;100.00;99224.50;6287073;22;45533;-85
2022/11/16 06:12:24;;;;;;;;;1.00;1.00;;;;;10.21;100.00;99232.44;6290584;22;45506;-85
2022/11/16 06:14:52;;;;;;;;;1.00;1.00;;;;;10.24;100.00;99246.56;6287434;22;45499;-85
2022/11/16 06:17:17;;;;;;;;;0.33;0.33;;;;;10.24;100.00;99239.50;6263712;22;47873;-85
2022/11/16 06:19:43;;;;;;;;;1.00;1.00;;;;;10.25;100.00;99233.28;6263928;22;45273;-85
2022/11/16 06:22:08;;;;;;;;;2.00;1.00;;;;;10.23;100.00;99231.53;6263827;22;45446;-86
2022/11/16 06:24:37;;;;;;;;;0.67;0.00;;;;;10.20;100.00;99232.47;6290369;22;45459;-85
2022/11/16 06:27:02;;;;;;;;;1.00;1.00;;;;;10.07;100.00;99205.09;6287869;22;46771;-85
2022/11/16 06:29:28;;;;;;;;;1.00;0.67;;;;;10.21;100.00;99226.25;6288034;22;45474;-85
2022/11/16 06:32:03;;;;;;;;;2.00;2.00;;;;;10.13;100.00;99213.03;6289352;22;45325;-86
2022/11/16 06:34:28;;;;;;;;;3.33;2.33;;;;;10.16;100.00;99228.94;6262530;22;44833;-85
2022/11/16 06:40:16;;;;;;;;;3.00;2.00;;;;;10.11;100.00;99206.84;6289333;22;45539;-85
2022/11/16 06:42:50;;;;;;;;;3.00;3.00;;;;;10.17;100.00;99225.38;6264289;22;44808;-85
2022/11/16 06:45:16;;;;;;;;;2.33;2.00;;;;;10.16;100.00;99220.97;6260513;22;44844;-85
2022/11/16 06:47:41;;;;;;;;;2.33;1.00;;;;;10.18;100.00;99235.13;6288550;22;46143;-85
2022/11/16 06:50:19;;;;;;;;;1.00;1.00;;;;;10.07;100.00;99202.44;6260629;22;45342;-85
2022/11/16 06:52:46;;;;;;;;;2.00;1.00;;;;;10.07;100.00;99210.41;6261318;22;44850;-85
2022/11/16 06:55:18;;;;;;;;;1.67;1.00;;;;;10.08;100.00;99214.84;6260475;22;45380;-84
2022/11/16 06:57:45;;;;;;;;;3.00;2.00;;;;;10.23;100.00;99237.72;6261767;22;46688;-84
2022/11/16 07:00:11;;;;;;;;;2.00;2.00;;;;;10.15;100.00;99216.53;6291488;22;45466;-85
2022/11/16 07:02:41;;;;;;;;;1.67;1.00;;;;;10.20;100.00;99220.06;6261491;22;45448;-85
2022/11/16 07:05:07;;;;;;;;;2.00;2.00;;;;;10.21;100.00;99211.16;6261401;22;45445;-85
2022/11/16 07:07:33;;;;;;;;;1.00;1.00;;;;;10.24;100.00;99220.00;6286701;22;47212;-85
2022/11/16 07:10:02;;;;;;;;;3.00;1.00;;;;;10.29;100.00;99226.19;6261804;22;45396;-85
2022/11/16 07:12:27;;;;;;;;;1.00;1.00;;;;;10.29;100.00;99224.38;6288716;22;45101;-85
2022/11/16 07:15:26;;;;;;;;;0.67;0.67;;;;;10.07;100.00;99185.63;6261409;22;45522;-84
2022/11/16 07:17:55;;;;;;;;;2.67;1.00;;;;;10.23;100.00;99223.56;6255501;22;45552;-85
2022/11/16 07:20:26;;;;;;;;;2.33;2.33;;;;;10.08;100.00;99196.25;6261149;22;44799;-86
2022/11/16 07:22:55;;;;;;;;;1.00;1.00;;;;;10.26;100.00;99226.19;6260907;22;45403;-86
2022/11/16 07:26:04;;;;;;;;;2.00;2.00;;;;;10.40;100.00;99242.91;6263068;22;45283;-85
2022/11/16 07:28:29;;;;;;;;;1.33;1.33;;;;;10.40;100.00;99234.94;6262045;22;47028;-84
2022/11/16 07:31:09;;;;;;;;;3.33;2.00;;;;;10.15;100.00;99184.66;6261357;22;45208;-83
2022/11/16 07:33:34;;;;;;;;;2.67;1.00;;;;;10.43;100.00;99231.41;6264162;22;45274;-85
2022/11/16 07:36:12;;;;;;;;;2.33;1.00;;;;;10.46;100.00;99234.88;6291508;22;44725;-84
2022/11/16 07:38:38;;;;;;;;;2.00;2.00;;;;;10.46;100.00;99237.53;6290331;22;45581;-84
2022/11/16 07:41:19;;;;;;;;;3.00;1.33;;;;;10.28;100.00;99206.69;6261378;22;45633;-84
2022/11/16 07:43:44;;;;;;;;;2.00;2.00;;;;;10.33;100.00;99206.69;6290367;22;45477;-84
2022/11/16 07:46:20;;;;;;;;;4.00;2.00;;;;;10.47;100.00;99219.84;6290358;22;44842;-85
2022/11/16 07:48:46;;;;;;;;;2.00;2.00;;;;;10.51;100.00;99235.72;6291995;22;45173;-84
2022/11/16 07:51:14;;;;;;;;;3.00;2.00;;;;;10.60;100.00;99243.63;6292408;22;45246;-84
2022/11/16 07:53:50;;;;;;;;;2.00;2.00;;;;;10.69;100.00;99236.44;6264365;22;45736;-84
2022/11/16 07:56:26;;;;;;;;;2.00;2.00;;;;;10.77;100.00;99237.25;6260070;22;44831;-86
2022/11/16 07:58:53;;;;;;;;;2.00;2.00;;;;;10.85;100.00;99242.50;6231538;22;45348;-85
2022/11/16 08:01:24;;;;;;;;;3.00;2.67;;;;;10.92;100.00;99238.84;6231505;22;45432;-86
2022/11/16 08:03:52;;;;;;;;;3.33;3.00;;;;;11.01;100.00;99231.66;6240581;22;45457;-84
2022/11/16 08:06:36;;;;;;;;;3.00;3.00;;;;;11.12;100.00;99238.63;6259824;22;45313;-85
2022/11/16 08:09:27;;;;;;;;;2.67;1.00;;;;;11.00;100.00;99213.03;6230638;22;46956;-85
2022/11/16 08:12:06;;;;;;;;;2.00;2.00;;;;;11.25;100.00;99234.00;6226043;22;45157;-85
2022/11/16 08:14:33;;;;;;;;;4.00;2.67;;;;;11.18;100.00;99219.91;6258177;22;45400;-86
2022/11/16 08:21:12;;;;;;;;;2.00;2.00;;;;;11.40;100.00;99234.69;6268259;22;45433;-85
2022/11/16 08:23:43;;;;;;;;;2.00;2.00;;;;;11.35;100.00;99231.22;6259158;22;45732;-85
2022/11/16 08:29:07;;;;;;;;;3.67;2.00;;;;;11.32;100.00;99225.94;6252681;22;45381;-86
2022/11/16 08:31:32;;;;;;;;;3.67;1.33;;;;;11.41;100.00;99230.22;6230779;22;46932;-86
2022/11/16 08:34:02;;;;;;;;;1.67;1.67;;;;;11.28;100.00;99213.56;6231405;22;45726;-86
2022/11/16 08:36:41;;;;;;;;;2.67;1.33;;;;;11.55;100.00;99243.34;6263232;22;45220;-86
2022/11/16 08:39:33;;;;;;;;;3.00;3.00;;;;;11.52;100.00;99227.44;6263843;22;45250;-85
2022/11/16 08:42:02;;;;;;;;;2.00;2.00;;;;;11.68;100.00;99236.09;6221936;22;45168;-85
2022/11/16 08:44:32;;;;;;;;;2.00;2.00;;;;;11.75;100.00;99245.75;6258954;22;44871;-86
2022/11/16 08:57:41;;;;;;;;;1.00;1.00;;;;;11.84;100.00;99226.09;6263740;22;45220;-84
2022/11/16 09:00:13;;;;;;;;;0.33;0.33;;;;;11.93;100.00;99239.28;6234045;22;45370;-85
2022/11/16 09:02:38;;;;;;;;;2.67;2.00;;;;;11.94;100.00;99225.09;6211442;22;45640;-85
2022/11/16 09:05:24;;;;;;;;;3.00;3.00;;;;;12.09;100.00;99227.47;6259451;22;46964;-84
2022/11/16 09:07:52;;;;;;;;;1.33;1.00;;;;;11.99;100.00;99189.44;6248556;22;45325;-85
2022/11/16 09:10:32;;;;;;;;;;;;;;;;;;;;;
2022/11/16 09:12:57;;;;;;;;;5.00;3.00;;;;;12.60;100.00;99219.50;6261476;22;66667;-84
2022/11/16 09:15:33;;;;;;;;;;;;;;;;;;;;;
2022/11/16 09:17:59;;;;;;;;;1.33;1.00;;;;;13.05;100.00;99215.03;6262467;22;72196;-85
2022/11/16 09:20:26;;;;;;;;;2.00;2.00;;;;;12.94;100.00;99194.81;6261642;22;45262;-85
2022/11/16 09:22:59;;;;;;;;;1.50;1.50;;;;;13.07;100.00;99208.78;6253502;22;44744;-85
2022/11/16 09:25:31;;;;;;;;;2.00;2.00;;;;;12.93;100.00;99161.03;6265233;22;45350;-85
2022/11/16 09:28:07;;;;;;;;;4.67;4.67;;;;;13.36;100.00;99213.53;6256002;22;44784;-85
2022/11/16 09:31:04;;;;;;;;;3.33;2.00;;;;;13.43;100.00;99208.91;6264193;22;44780;-85
2022/11/16 09:33:33;;;;;;;;;6.67;3.33;;;;;13.36;100.00;99197.50;6250791;22;45445;-86
2022/11/16 09:36:05;;;;;;;;;3.00;3.00;;;;;13.23;100.00;99173.75;6264551;22;45271;-86
2022/11/16 09:52:49;;;;;;;;;2.50;2.50;;;;;13.37;100.00;99193.94;6267368;22;45322;-85
2022/11/16 09:55:20;;;;;;;;;3.00;3.00;;;;;13.36;100.00;99197.50;6269305;22;45376;-86
2022/11/16 09:58:27;;;;;;;;;2.00;2.00;;;;;13.35;100.00;99195.75;6298342;22;45164;-87
2022/11/16 10:01:41;;;;;;;;;5.67;4.67;;;;;13.36;100.00;99185.97;6271823;22;45896;-86
2022/11/16 10:15:07;;;;;;;;;4.00;3.67;;;;;13.70;100.00;99180.72;6298548;22;44703;-85
2022/11/16 10:18:20;;;;;;;;;2.00;2.00;;;;;13.86;100.00;99207.09;6149200;22;45404;-86
2022/11/16 10:21:22;;;;;;;;;3.33;3.33;;;;;13.90;100.00;99206.09;6167040;22;45441;-86
2022/11/16 10:24:22;;;;;;;;;3.00;2.33;;;;;13.88;100.00;99203.44;6147013;22;47098;-87
2022/11/16 10:27:21;;;;;;;;;1.00;1.00;;;;;13.76;100.00;99193.94;6145906;23;45455;-86
2022/11/16 10:32:42;;;;;;;;;1.00;1.00;;;;;13.55;100.00;99149.91;6269141;22;46040;-85
2022/11/16 10:35:20;;;;;;;;;1.50;1.50;;;;;13.58;100.00;99159.63;6295377;22;46661;-85
2022/11/16 10:38:04;;;;;;;;;1.00;1.00;;;;;13.82;100.00;99200.06;6297405;22;45550;-85
2022/11/16 10:40:53;;;;;;;;;1.75;1.75;;;;;13.83;100.00;99201.78;6296773;22;44866;-87
2022/11/16 10:44:04;;;;;;;;;2.33;2.33;;;;;13.97;100.00;99199.66;6295341;22;44775;-87
2022/11/16 10:47:01;;;;;;;;;2.00;2.00;;;;;13.96;100.00;99187.22;6296758;22;45542;-87
2022/11/16 10:49:59;;;;;;;;;;;;;;;;;;;;;
2022/11/16 10:52:31;;;;;;;;;4.33;3.00;;;;;13.86;100.00;99132.25;6297366;22;68165;-86
2022/11/16 10:54:58;;;;;;;;;1.00;1.00;;;;;13.97;100.00;99138.19;6296263;22;45374;-86
2022/11/16 10:57:54;;;;;;;;;1.00;1.00;;;;;14.30;100.00;99164.97;6268662;22;46200;-86
2022/11/16 11:00:35;;;;;;;;;3.00;2.00;;;;;14.26;100.00;99168.63;6293762;22;45646;-86
2022/11/16 11:03:08;;;;;;;;;2.00;2.00;;;;;14.11;100.00;99138.72;6292945;22;45372;-86
2022/11/16 11:05:54;;;;;;;;;2.00;2.00;;;;;14.14;100.00;99144.00;6293383;22;44789;-87
2022/11/16 11:13:48;;;;;;;;;2.00;2.00;;;;;14.26;100.00;99142.78;6264394;22;45156;-88
2022/11/16 11:16:23;;;;;;;;;4.00;1.25;;;;;14.15;100.00;99119.00;6242362;22;44842;-86
2022/11/16 11:19:16;;;;;;;;;2.00;2.00;;;;;14.37;100.00;99151.38;6241614;22;47096;-85
2022/11/16 11:21:52;;;;;;;;;9.33;9.00;;;;;14.28;100.00;99118.66;6266533;22;44644;-86
2022/11/16 11:24:19;;;;;;;;;3.25;3.25;;;;;14.25;100.00;99092.91;6238812;22;45545;-86
2022/11/16 11:27:06;;;;;;;;;8.33;4.33;;;;;14.46;100.00;99117.28;6268056;22;45233;-85
2022/11/16 11:29:43;;;;;;;;;5.00;3.00;;;;;14.60;100.00;99123.16;6241105;22;45096;-87
2022/11/16 11:32:20;;;;;;;;;1.00;1.00;;;;;14.59;100.00;99118.75;6262103;22;44700;-86
2022/11/16 11:35:00;;;;;;;;;4.75;3.00;;;;;14.41;100.00;99082.66;6235670;22;45292;-87
2022/11/16 11:37:39;;;;;;;;;4.00;4.00;;;;;14.59;100.00;99102.69;6237910;22;44832;-87
2022/11/16 11:41:04;;;;;;;;;5.75;2.00;;;;;14.76;100.00;99128.94;6261585;22;46966;-86
2022/11/16 11:44:09;;;;;;;;;2.25;2.25;;;;;14.86;100.00;99114.38;6086377;23;45496;-86
2022/11/16 11:46:57;;;;;;;;;3.00;3.00;;;;;14.67;100.00;99067.69;5996940;23;45631;-89
2022/11/16 11:59:52;;;;;;;;;3.25;2.00;;;;;14.89;100.00;99108.06;6052522;23;44815;-87
2022/11/16 12:06:48;;;;;;;;;;;;;;;;;;;;;
2022/11/16 12:10:05;;;;;;;;;15.00;13.00;;;;;14.57;100.00;99057.25;5993014;23;72363;-87
2022/11/16 12:13:58;;;;;;;;;11.25;8.25;;;;;14.91;100.00;99109.78;5965200;23;44794;-88
2022/11/16 12:17:28;;;;;;;;;3.25;3.25;;;;;14.91;100.00;99087.50;5984803;23;45440;-87
2022/11/16 12:20:35;;;;;;;;;13.00;9.67;;;;;14.95;100.00;99084.66;6022122;23;45433;-88
2022/11/16 12:23:59;;;;;;;;;6.00;5.25;;;;;15.06;100.00;99097.72;6089504;23;45237;-87
2022/11/16 12:36:16;;;;;;;;;;;;;;;;;;;;;
2022/11/16 12:39:22;;;;;;;;;1.25;1.25;;;;;15.33;100.00;99065.63;6262978;22;68142;-85
2022/11/16 12:42:03;;;;;;;;;4.75;3.50;;;;;15.32;100.00;99070.13;6238119;22;44829;-86
2022/11/16 12:45:06;;;;;;;;;2.00;2.00;;;;;15.29;100.00;99064.88;6238012;22;46878;-86
2022/11/16 12:47:55;;;;;;;;;3.00;3.00;;;;;15.29;100.00;99058.63;6236030;22;45076;-86
2022/11/16 12:50:50;;;;;;;;;3.50;3.00;;;;;15.06;100.00;99027.25;6238494;22;44693;-86
2022/11/16 12:54:04;;;;;;;;;14.67;13.00;;;;;15.27;100.00;99061.38;6220489;22;45329;-87
2022/11/16 12:57:10;;;;;;;;;3.00;1.00;;;;;15.24;100.00;99058.78;6238085;22;47009;-83
2022/11/16 13:00:08;;;;;;;;;5.75;3.75;;;;;15.20;100.00;99057.13;6237316;22;44748;-86
2022/11/16 13:10:53;;;;;;;;;3.25;3.00;;;;;15.16;100.00;99039.41;6237726;22;45333;-86
2022/11/16 13:13:50;;;;;;;;;1.75;1.00;;;;;14.86;100.00;99001.97;6241605;22;45990;-87
2022/11/16 13:19:24;;;;;;;;;2.75;1.25;;;;;15.12;100.00;99030.59;6197852;23;45506;-86
2022/11/16 13:25:45;;;;;;;;;1.25;1.25;;;;;15.19;100.00;99012.53;6194395;23;44865;-86
2022/11/16 13:28:44;;;;;;;;;3.25;2.75;;;;;15.25;100.00;98998.94;6200830;22;45303;-86
2022/11/16 13:31:49;;;;;;;;;4.00;3.50;;;;;15.23;100.00;98990.09;6169909;23;45510;-85
2022/11/16 13:34:31;;;;;;;;;3.75;2.00;;;;;15.24;100.00;98997.19;6164225;22;45228;-85
2022/11/16 13:37:35;;;;;;;;;6.25;3.25;;;;;15.22;100.00;98974.06;6164402;22;45281;-86
2022/11/16 13:43:35;;;;;;;;;0.75;0.75;;;;;15.14;100.00;98960.94;6171755;23;45337;-84
2022/11/16 13:46:08;;;;;;;;;5.75;4.75;;;;;14.95;100.00;98934.75;6147247;23;45480;-87
2022/11/16 13:48:53;;;;;;;;;53.67;41.67;;;;;15.06;100.00;98953.13;6171748;23;45985;-86
2022/11/16 13:51:21;;;;;;;;;26.67;25.00;;;;;15.15;100.00;98976.09;6126475;23;44734;-86
2022/11/16 13:57:25;;;;;;;;;4.75;3.25;;;;;15.08;100.00;98977.19;6259330;22;45401;-84
2022/11/16 14:00:13;;;;;;;;;1.25;1.25;;;;;14.77;100.00;98933.56;6251771;22;45462;-84
2022/11/16 14:02:41;;;;;;;;;3.50;2.00;;;;;14.88;100.00;98959.09;6262340;22;45236;-87
2022/11/16 14:05:46;;;;;;;;;3.50;2.00;;;;;14.81;100.00;98958.44;6263425;22;45385;-84
2022/11/16 14:08:35;;;;;;;;;1.00;1.00;;;;;14.79;100.00;98957.59;6165975;23;44811;-87
2022/11/16 14:15:09;;;;;;;;;4.50;3.25;;;;;14.61;100.00;98945.66;6164986;22;44793;-86
2022/11/16 14:18:24;;;;;;;;;4.25;4.25;;;;;14.54;100.00;98944.97;6148281;23;46970;-85
2022/11/16 14:21:29;;;;;;;;;4.25;4.00;;;;;14.50;100.00;98937.97;6143152;23;45185;-86
2022/11/16 14:24:25;;;;;;;;;3.00;3.00;;;;;14.45;100.00;98929.19;6139875;23;45368;-84
2022/11/16 14:27:33;;;;;;;;;3.50;2.00;;;;;14.26;100.00;98888.78;6112374;23;45522;-85
2022/11/16 14:32:46;;;;;;;;;2.00;2.00;;;;;14.30;100.00;98908.25;6232723;22;46450;-86
2022/11/16 14:35:50;;;;;;;;;6.75;5.00;;;;;14.26;100.00;98901.25;6237035;22;45306;-85
2022/11/16 14:38:43;;;;;;;;;4.00;2.00;;;;;14.11;100.00;98878.53;6239004;22;44937;-86
2022/11/16 14:41:26;;;;;;;;;3.50;2.00;;;;;13.96;100.00;98854.03;6237400;22;47748;-85
2022/11/16 14:43:57;;;;;;;;;5.50;4.00;;;;;14.08;100.00;98890.19;6267969;22;45298;-86
2022/11/16 14:46:52;;;;;;;;;4.25;4.25;;;;;14.06;100.00;98876.00;6260658;22;45564;-87
2022/11/16 14:49:20;;;;;;;;;3.75;2.25;;;;;13.87;100.00;98845.41;6199829;22;44997;-85
2022/11/16 14:52:30;;;;;;;;;3.25;3.25;;;;;13.75;100.00;98828.78;6263386;22;45306;-86
2022/11/16 14:55:04;;;;;;;;;7.00;5.00;;;;;13.88;100.00;98858.72;6240810;22;44705;-85
2022/11/16 14:57:30;;;;;;;;;4.25;4.25;;;;;13.57;100.00;98824.91;6239895;22;44721;-85